createdAt,value
2023-02-09T00:02:45.288Z,67.50
2023-02-09T00:07:48.910Z,67.50
2023-02-09T00:13:09.712Z,67.40
2023-02-09T00:18:14.380Z,67.50
2023-02-09T00:23:18.025Z,67.60
2023-02-09T00:28:22.834Z,67.40
2023-02-09T00:33:27.691Z,67.40
2023-02-09T00:38:31.027Z,67.40
2023-02-09T00:43:35.076Z,67.40
2023-02-09T00:48:39.843Z,67.40
2023-02-09T00:53:43.472Z,67.60
2023-02-09T00:58:46.937Z,67.60
2023-02-09T01:03:51.712Z,67.70
2023-02-09T01:08:55.317Z,67.80
2023-02-09T01:14:00.224Z,67.80
2023-02-09T01:19:05.077Z,67.80
2023-02-09T01:24:09.140Z,67.70
2023-02-09T01:29:15.643Z,67.90
2023-02-09T01:34:20.483Z,68.00
2023-02-09T01:39:23.990Z,68.10
2023-02-09T01:45:06.273Z,68.20
2023-02-09T01:50:11.569Z,68.30
2023-02-09T01:55:18.983Z,68.40
2023-02-09T02:00:23.604Z,68.70
2023-02-09T02:05:30.441Z,68.60
2023-02-09T02:10:34.309Z,69.00
2023-02-09T02:15:43.440Z,69.10
2023-02-09T02:21:21.844Z,69.20
2023-02-09T02:26:59.789Z,69.20
2023-02-09T02:32:17.420Z,69.10
2023-02-09T02:37:33.668Z,68.90
2023-02-09T02:42:51.639Z,68.80
2023-02-09T02:48:05.544Z,69.00
2023-02-09T02:53:11.383Z,68.90
2023-02-09T02:58:17.204Z,68.80
2023-02-09T03:03:25.457Z,69.00
2023-02-09T03:08:28.872Z,69.20
2023-02-09T03:13:40.120Z,69.10
2023-02-09T03:18:57.163Z,69.00
2023-02-09T03:24:04.884Z,69.00
2023-02-09T03:29:10.396Z,69.00
2023-02-09T03:34:16.293Z,68.90
2023-02-09T03:39:20.003Z,68.80
2023-02-09T03:44:29.453Z,68.70
2023-02-09T03:49:36.527Z,68.70
2023-02-09T03:54:40.376Z,68.90
2023-02-09T03:59:44.024Z,68.80
2023-02-09T04:04:48.725Z,68.80
2023-02-09T04:09:52.875Z,68.80
2023-02-09T04:14:56.238Z,68.90
2023-02-09T04:20:01.045Z,68.80
2023-02-09T04:25:04.979Z,68.80
2023-02-09T04:30:09.905Z,68.90
2023-02-09T04:35:14.894Z,69.00
2023-02-09T04:40:18.719Z,68.90
2023-02-09T04:45:22.077Z,68.80
2023-02-09T04:50:26.757Z,68.80
2023-02-09T04:55:30.402Z,68.70
2023-02-09T05:00:34.012Z,68.70
2023-02-09T05:05:42.284Z,68.70
2023-02-09T05:10:45.975Z,68.70
2023-02-09T05:15:49.643Z,68.90
2023-02-09T05:20:54.330Z,68.80
2023-02-09T05:25:57.962Z,68.80
2023-02-09T05:31:01.640Z,68.90
2023-02-09T05:36:09.583Z,68.80
2023-02-09T05:41:36.190Z,68.80
2023-02-09T05:46:39.579Z,68.90
2023-02-09T05:51:44.249Z,69.00
2023-02-09T05:56:48.304Z,69.00
2023-02-09T06:01:52.363Z,68.90
2023-02-09T06:06:57.550Z,68.80
2023-02-09T06:12:00.971Z,68.60
2023-02-09T06:17:04.482Z,68.50
2023-02-09T06:22:09.240Z,68.30
2023-02-09T06:27:13.573Z,68.30
2023-02-09T06:32:17.054Z,72.60
2023-02-09T06:37:22.420Z,76.30
2023-02-09T06:42:43.761Z,77.80
2023-02-09T06:47:47.963Z,78.60
2023-02-09T06:52:53.425Z,79.50
2023-02-09T06:57:56.984Z,80.60
2023-02-09T07:03:00.678Z,81.00
2023-02-09T07:08:06.114Z,80.80
2023-02-09T07:13:09.638Z,80.30
2023-02-09T07:18:13.310Z,79.40
2023-02-09T07:23:18.040Z,78.50
2023-02-09T07:28:22.009Z,77.20
2023-02-09T07:33:26.612Z,76.10
2023-02-09T07:38:31.777Z,75.20
2023-02-09T07:43:35.597Z,74.30
2023-02-09T07:48:39.013Z,73.50
2023-02-09T07:53:43.920Z,72.90
2023-02-09T07:58:47.604Z,72.10
2023-02-09T08:03:52.097Z,71.20
2023-02-09T08:08:56.874Z,70.90
2023-02-09T08:14:05.723Z,69.70
2023-02-09T08:19:13.063Z,69.10
2023-02-09T08:24:19.307Z,68.90
2023-02-09T08:29:22.745Z,67.90
2023-02-09T08:34:26.148Z,67.40
2023-02-09T08:39:31.188Z,67.30
2023-02-09T08:44:35.028Z,66.80
2023-02-09T08:49:38.584Z,66.10
2023-02-09T08:54:43.357Z,65.00
2023-02-09T08:59:46.988Z,64.70
2023-02-09T09:04:50.415Z,62.90
2023-02-09T09:09:55.168Z,63.40
2023-02-09T09:14:58.829Z,62.40
2023-02-09T09:20:02.229Z,62.00
2023-02-09T09:25:07.872Z,61.00
2023-02-09T09:30:12.448Z,60.20
2023-02-09T09:35:15.904Z,60.30
2023-02-09T09:40:24.480Z,60.10
2023-02-09T09:45:30.385Z,59.30
2023-02-09T09:50:39.683Z,58.60
2023-02-09T09:55:46.211Z,57.60
2023-02-09T10:00:51.140Z,57.80
2023-02-09T10:05:56.463Z,56.40
2023-02-09T10:11:04.921Z,57.00
2023-02-09T10:16:17.922Z,55.90
2023-02-09T10:21:21.639Z,54.30
2023-02-09T10:26:28.580Z,54.40
2023-02-09T10:31:35.208Z,54.10
2023-02-09T10:36:49.697Z,52.90
2023-02-09T10:41:56.732Z,52.10
2023-02-09T10:47:11.954Z,52.80
2023-02-09T10:52:21.612Z,52.60
2023-02-09T10:57:29.690Z,52.00
2023-02-09T11:02:38.293Z,51.20
2023-02-09T11:07:43.941Z,51.00
2023-02-09T11:12:48.819Z,50.70
2023-02-09T11:17:56.033Z,51.30
2023-02-09T11:23:28.989Z,49.70
2023-02-09T11:28:48.973Z,48.70
2023-02-09T11:34:02.036Z,48.60
2023-02-09T11:39:09.441Z,48.80
2023-02-09T11:44:21.541Z,47.90
2023-02-09T11:49:30.068Z,47.90
2023-02-09T11:54:35.795Z,47.50
2023-02-09T11:59:44.303Z,46.60
2023-02-09T12:04:54.230Z,47.60
2023-02-09T12:10:07.592Z,47.60
2023-02-09T12:15:15.536Z,46.60
2023-02-09T12:20:29.445Z,46.40
2023-02-09T12:25:52.029Z,45.80
2023-02-09T12:31:06.428Z,45.80
2023-02-09T12:36:29.980Z,46.00
2023-02-09T12:42:12.120Z,45.90
2023-02-09T12:47:46.461Z,45.30
2023-02-09T12:53:08.236Z,45.00
2023-02-09T12:58:34.887Z,46.10
2023-02-09T13:03:46.496Z,44.80
2023-02-09T13:08:53.419Z,45.00
2023-02-09T13:13:59.064Z,44.90
2023-02-09T13:19:36.343Z,45.40
2023-02-09T13:24:53.899Z,45.10
2023-02-09T13:29:59.753Z,44.90
2023-02-09T13:35:14.021Z,45.80
2023-02-09T13:40:21.683Z,45.60
2023-02-09T13:45:26.816Z,45.40
2023-02-09T13:50:33.802Z,45.10
2023-02-09T13:55:39.945Z,45.20
2023-02-09T14:00:46.185Z,45.00
2023-02-09T14:05:55.328Z,44.80
2023-02-09T14:11:02.916Z,45.30
2023-02-09T14:16:08.185Z,45.50
2023-02-09T14:21:28.218Z,44.90
2023-02-09T14:26:36.074Z,45.00
2023-02-09T14:31:43.736Z,45.30
2023-02-09T14:36:54.463Z,45.60
2023-02-09T14:42:17.961Z,46.20
2023-02-09T14:47:38.443Z,46.50
2023-02-09T14:52:47.477Z,47.60
2023-02-09T14:57:51.143Z,46.60
2023-02-09T15:02:54.848Z,47.00
2023-02-09T15:08:08.098Z,47.20
2023-02-09T15:13:13.338Z,47.20
2023-02-09T15:18:19.818Z,47.40
2023-02-09T15:23:24.535Z,47.60
2023-02-09T15:28:30.020Z,47.90
2023-02-09T15:33:33.522Z,48.10
2023-02-09T15:38:38.686Z,48.30
2023-02-09T15:44:00.225Z,48.40
2023-02-09T15:49:05.475Z,48.60
2023-02-09T15:54:15.281Z,49.00
2023-02-09T15:59:21.286Z,49.30
2023-02-09T16:04:24.690Z,49.40
2023-02-09T16:09:30.941Z,49.60
2023-02-09T16:14:34.419Z,49.70
2023-02-09T16:19:38.216Z,49.90
2023-02-09T16:24:46.708Z,50.10
2023-02-09T16:29:50.347Z,50.30
2023-02-09T16:34:55.054Z,50.30
2023-02-09T16:40:02.774Z,50.60
2023-02-09T16:45:06.696Z,50.80
2023-02-09T16:50:21.005Z,50.90
2023-02-09T16:55:31.791Z,52.20
2023-02-09T17:00:37.471Z,51.10
2023-02-09T17:05:42.691Z,51.30
2023-02-09T17:10:49.070Z,51.30
2023-02-09T17:15:55.339Z,51.40
2023-02-09T17:21:01.040Z,51.60
2023-02-09T17:26:06.819Z,51.60
2023-02-09T17:31:18.699Z,51.80
2023-02-09T17:36:27.717Z,51.90
2023-02-09T17:41:38.321Z,51.80
2023-02-09T17:46:42.368Z,52.00
2023-02-09T17:51:47.492Z,52.00
2023-02-09T17:56:52.750Z,52.10
2023-02-09T18:01:56.302Z,52.20
2023-02-09T18:06:59.764Z,52.20
2023-02-09T18:12:06.498Z,52.20
2023-02-09T18:17:10.024Z,52.40
2023-02-09T18:22:17.019Z,52.30
2023-02-09T18:27:23.089Z,52.50
2023-02-09T18:32:26.580Z,52.50
2023-02-09T18:37:30.039Z,52.50
2023-02-09T18:42:35.330Z,52.60
2023-02-09T18:47:40.361Z,52.60
2023-02-09T18:52:49.403Z,52.70
2023-02-09T18:57:54.425Z,52.80
2023-02-09T19:02:59.134Z,52.80
2023-02-09T19:08:02.808Z,52.70
2023-02-09T19:13:07.960Z,52.70
2023-02-09T19:18:11.338Z,52.70
2023-02-09T19:23:14.741Z,52.70
2023-02-09T19:28:19.563Z,52.70
2023-02-09T19:33:23.415Z,52.80
2023-02-09T19:38:27.541Z,52.80
2023-02-09T19:43:32.598Z,53.00
2023-02-09T19:48:36.283Z,53.20
2023-02-09T19:53:39.979Z,53.40
2023-02-09T19:58:45.409Z,53.20
2023-02-09T20:03:49.598Z,53.30
2023-02-09T20:08:53.134Z,53.40
2023-02-09T20:13:57.961Z,53.50
2023-02-09T20:19:01.601Z,53.60
2023-02-09T20:24:09.587Z,53.70
2023-02-09T20:29:16.824Z,53.90
2023-02-09T20:34:20.655Z,53.90
2023-02-09T20:39:24.393Z,54.10
2023-02-09T20:44:46.525Z,54.20
2023-02-09T20:49:49.930Z,54.30
2023-02-09T20:54:53.342Z,54.20
2023-02-09T20:59:58.824Z,54.30
2023-02-09T21:05:02.252Z,54.40
2023-02-09T21:10:06.048Z,54.40
2023-02-09T21:15:11.053Z,54.70
2023-02-09T21:20:15.232Z,54.90
2023-02-09T21:25:19.340Z,55.00
2023-02-09T21:30:24.252Z,55.10
2023-02-09T21:35:28.081Z,55.00
2023-02-09T21:40:32.527Z,54.90
2023-02-09T21:45:39.036Z,54.90
2023-02-09T21:50:42.441Z,54.90
2023-02-09T21:55:46.065Z,54.80
2023-02-09T22:00:59.423Z,54.60
2023-02-09T22:06:02.957Z,54.60
2023-02-09T22:11:07.005Z,54.60
2023-02-09T22:16:16.759Z,54.60
2023-02-09T22:21:20.358Z,54.50
2023-02-09T22:26:23.912Z,54.40
2023-02-09T22:31:28.624Z,54.40
2023-02-09T22:36:31.974Z,54.30
2023-02-09T22:41:35.693Z,54.30
2023-02-09T22:46:41.920Z,54.30
2023-02-09T22:51:46.822Z,54.30
2023-02-09T22:56:50.402Z,54.40
2023-02-09T23:01:55.639Z,54.40
2023-02-09T23:06:59.122Z,54.40
2023-02-09T23:12:03.072Z,55.50
2023-02-09T23:17:07.894Z,54.60
2023-02-09T23:22:11.229Z,54.60
2023-02-09T23:27:14.582Z,54.60
2023-02-09T23:32:19.397Z,56.20
2023-02-09T23:37:36.875Z,61.40
2023-02-09T23:42:41.479Z,66.40
2023-02-09T23:47:46.194Z,69.30
2023-02-09T23:52:49.676Z,70.90
2023-02-09T23:57:53.064Z,73.40
